sensor_id;sensor_type;location;lat;lon;timestamp;P1;durP1;ratioP1;P2;durP2;ratioP2
12756;SDS011;31601;48.042;12.240;2022-08-11T00:00:07;3.17;;;2.10;;
12756;SDS011;31601;48.042;12.240;2022-08-11T00:02:37;4.00;;;2.37;;
12756;SDS011;31601;48.042;12.240;2022-08-11T00:05:07;4.53;;;2.40;;
12756;SDS011;31601;48.042;12.240;2022-08-11T00:07:41;2.47;;;2.10;;
12756;SDS011;31601;48.042;12.240;2022-08-11T00:10:09;3.73;;;2.13;;
12756;SDS011;31601;48.042;12.240;2022-08-11T00:12:37;2.50;;;2.17;;
12756;SDS011;31601;48.042;12.240;2022-08-11T00:15:04;4.67;;;2.27;;
12756;SDS011;31601;48.042;12.240;2022-08-11T00:17:33;3.93;;;2.30;;
12756;SDS011;31601;48.042;12.240;2022-08-11T00:20:01;3.10;;;2.23;;
12756;SDS011;31601;48.042;12.240;2022-08-11T00:22:34;2.43;;;2.10;;
12756;SDS011;31601;48.042;12.240;2022-08-11T00:25:07;4.13;;;2.20;;
12756;SDS011;31601;48.042;12.240;2022-08-11T00:27:36;3.30;;;2.33;;
12756;SDS011;31601;48.042;12.240;2022-08-11T00:30:05;3.63;;;2.00;;
12756;SDS011;31601;48.042;12.240;2022-08-11T00:32:33;4.53;;;2.23;;
12756;SDS011;31601;48.042;12.240;2022-08-11T00:35:02;3.63;;;1.90;;
12756;SDS011;31601;48.042;12.240;2022-08-11T00:37:31;5.33;;;2.90;;
12756;SDS011;31601;48.042;12.240;2022-08-11T00:40:00;5.57;;;2.30;;
12756;SDS011;31601;48.042;12.240;2022-08-11T00:42:45;5.33;;;2.37;;
12756;SDS011;31601;48.042;12.240;2022-08-11T00:45:21;3.20;;;2.20;;
12756;SDS011;31601;48.042;12.240;2022-08-11T00:47:54;5.57;;;2.20;;
12756;SDS011;31601;48.042;12.240;2022-08-11T00:50:28;3.87;;;2.63;;
12756;SDS011;31601;48.042;12.240;2022-08-11T00:53:14;2.43;;;2.07;;
12756;SDS011;31601;48.042;12.240;2022-08-11T00:59:13;6.33;;;2.73;;
12756;SDS011;31601;48.042;12.240;2022-08-11T01:02:05;4.17;;;2.33;;
12756;SDS011;31601;48.042;12.240;2022-08-11T01:05:02;7.80;;;2.37;;
12756;SDS011;31601;48.042;12.240;2022-08-11T01:07:52;4.10;;;2.30;;
12756;SDS011;31601;48.042;12.240;2022-08-11T01:10:58;5.80;;;2.57;;
12756;SDS011;31601;48.042;12.240;2022-08-11T01:13:36;3.87;;;2.50;;
12756;SDS011;31601;48.042;12.240;2022-08-11T01:19:41;2.70;;;2.50;;
12756;SDS011;31601;48.042;12.240;2022-08-11T01:22:37;5.13;;;2.43;;
12756;SDS011;31601;48.042;12.240;2022-08-11T01:25:40;4.73;;;2.60;;
12756;SDS011;31601;48.042;12.240;2022-08-11T01:31:36;3.30;;;2.73;;
12756;SDS011;31601;48.042;12.240;2022-08-11T01:40:25;4.23;;;2.60;;
12756;SDS011;31601;48.042;12.240;2022-08-11T01:46:34;4.03;;;2.73;;
12756;SDS011;31601;48.042;12.240;2022-08-11T01:49:09;5.43;;;2.90;;
12756;SDS011;31601;48.042;12.240;2022-08-11T01:51:44;2.93;;;2.20;;
12756;SDS011;31601;48.042;12.240;2022-08-11T01:54:32;5.23;;;2.50;;
12756;SDS011;31601;48.042;12.240;2022-08-11T01:57:09;3.67;;;2.43;;
12756;SDS011;31601;48.042;12.240;2022-08-11T01:59:46;4.10;;;2.50;;
12756;SDS011;31601;48.042;12.240;2022-08-11T02:08:10;3.27;;;2.67;;
12756;SDS011;31601;48.042;12.240;2022-08-11T02:10:51;4.00;;;2.90;;
12756;SDS011;31601;48.042;12.240;2022-08-11T02:13:41;3.17;;;2.87;;
12756;SDS011;31601;48.042;12.240;2022-08-11T02:16:16;6.40;;;3.00;;
12756;SDS011;31601;48.042;12.240;2022-08-11T02:18:55;5.63;;;2.80;;
12756;SDS011;31601;48.042;12.240;2022-08-11T02:21:49;3.83;;;2.87;;
12756;SDS011;31601;48.042;12.240;2022-08-11T02:24:45;5.17;;;3.00;;
12756;SDS011;31601;48.042;12.240;2022-08-11T02:27:30;4.63;;;3.10;;
12756;SDS011;31601;48.042;12.240;2022-08-11T02:30:05;3.60;;;3.13;;
12756;SDS011;31601;48.042;12.240;2022-08-11T02:32:36;4.07;;;3.20;;
12756;SDS011;31601;48.042;12.240;2022-08-11T02:35:40;3.70;;;3.07;;
12756;SDS011;31601;48.042;12.240;2022-08-11T02:38:15;5.63;;;3.10;;
12756;SDS011;31601;48.042;12.240;2022-08-11T02:40:49;3.80;;;3.00;;
12756;SDS011;31601;48.042;12.240;2022-08-11T02:43:38;4.90;;;2.83;;
12756;SDS011;31601;48.042;12.240;2022-08-11T02:46:16;4.13;;;3.10;;
12756;SDS011;31601;48.042;12.240;2022-08-11T02:48:50;5.27;;;3.30;;
12756;SDS011;31601;48.042;12.240;2022-08-11T02:51:43;3.97;;;3.03;;
12756;SDS011;31601;48.042;12.240;2022-08-11T02:54:22;6.43;;;3.40;;
12756;SDS011;31601;48.042;12.240;2022-08-11T02:56:56;6.87;;;3.07;;
12756;SDS011;31601;48.042;12.240;2022-08-11T02:59:31;4.90;;;3.20;;
12756;SDS011;31601;48.042;12.240;2022-08-11T03:05:14;7.83;;;3.33;;
12756;SDS011;31601;48.042;12.240;2022-08-11T03:07:59;6.03;;;3.40;;
12756;SDS011;31601;48.042;12.240;2022-08-11T03:10:34;3.93;;;2.97;;
12756;SDS011;31601;48.042;12.240;2022-08-11T03:13:09;5.53;;;3.30;;
12756;SDS011;31601;48.042;12.240;2022-08-11T03:16:04;5.10;;;3.10;;
12756;SDS011;31601;48.042;12.240;2022-08-11T03:19:00;6.23;;;3.40;;
12756;SDS011;31601;48.042;12.240;2022-08-11T03:21:34;4.63;;;3.33;;
12756;SDS011;31601;48.042;12.240;2022-08-11T03:24:07;3.83;;;3.13;;
12756;SDS011;31601;48.042;12.240;2022-08-11T03:26:42;3.60;;;3.30;;
12756;SDS011;31601;48.042;12.240;2022-08-11T03:29:18;6.03;;;3.23;;
12756;SDS011;31601;48.042;12.240;2022-08-11T03:31:57;6.77;;;3.37;;
12756;SDS011;31601;48.042;12.240;2022-08-11T03:34:29;4.33;;;3.27;;
12756;SDS011;31601;48.042;12.240;2022-08-11T03:37:24;3.87;;;2.77;;
12756;SDS011;31601;48.042;12.240;2022-08-11T03:40:37;5.40;;;3.60;;
12756;SDS011;31601;48.042;12.240;2022-08-11T03:43:52;10.27;;;3.20;;
12756;SDS011;31601;48.042;12.240;2022-08-11T03:46:34;5.53;;;3.43;;
12756;SDS011;31601;48.042;12.240;2022-08-11T03:49:14;4.97;;;3.70;;
12756;SDS011;31601;48.042;12.240;2022-08-11T03:52:05;5.10;;;3.67;;
12756;SDS011;31601;48.042;12.240;2022-08-11T03:54:40;4.03;;;3.60;;
12756;SDS011;31601;48.042;12.240;2022-08-11T03:57:20;4.83;;;3.60;;
12756;SDS011;31601;48.042;12.240;2022-08-11T04:00:05;4.37;;;3.70;;
12756;SDS011;31601;48.042;12.240;2022-08-11T04:05:41;8.37;;;4.00;;
12756;SDS011;31601;48.042;12.240;2022-08-11T04:08:43;5.17;;;3.70;;
12756;SDS011;31601;48.042;12.240;2022-08-11T04:14:55;7.17;;;4.23;;
12756;SDS011;31601;48.042;12.240;2022-08-11T04:18:05;4.27;;;3.83;;
12756;SDS011;31601;48.042;12.240;2022-08-11T04:20:52;5.57;;;4.10;;
12756;SDS011;31601;48.042;12.240;2022-08-11T04:23:41;8.83;;;4.23;;
12756;SDS011;31601;48.042;12.240;2022-08-11T04:29:40;7.67;;;3.80;;
12756;SDS011;31601;48.042;12.240;2022-08-11T04:32:27;5.20;;;3.77;;
12756;SDS011;31601;48.042;12.240;2022-08-11T04:35:12;7.07;;;3.90;;
12756;SDS011;31601;48.042;12.240;2022-08-11T04:38:13;6.07;;;3.60;;
12756;SDS011;31601;48.042;12.240;2022-08-11T04:40:54;5.37;;;4.00;;
12756;SDS011;31601;48.042;12.240;2022-08-11T04:43:59;5.10;;;3.63;;
12756;SDS011;31601;48.042;12.240;2022-08-11T04:49:49;4.47;;;3.57;;
12756;SDS011;31601;48.042;12.240;2022-08-11T04:56:23;5.07;;;3.70;;
12756;SDS011;31601;48.042;12.240;2022-08-11T04:59:19;4.97;;;3.97;;
12756;SDS011;31601;48.042;12.240;2022-08-11T05:05:18;5.47;;;3.70;;
12756;SDS011;31601;48.042;12.240;2022-08-11T05:11:06;6.40;;;4.13;;
12756;SDS011;31601;48.042;12.240;2022-08-11T05:13:46;5.60;;;3.90;;
12756;SDS011;31601;48.042;12.240;2022-08-11T05:16:33;5.87;;;3.90;;
12756;SDS011;31601;48.042;12.240;2022-08-11T05:19:25;4.00;;;3.60;;
12756;SDS011;31601;48.042;12.240;2022-08-11T05:22:11;5.47;;;3.97;;
12756;SDS011;31601;48.042;12.240;2022-08-11T05:24:56;5.90;;;4.00;;
12756;SDS011;31601;48.042;12.240;2022-08-11T05:27:49;5.53;;;3.90;;
12756;SDS011;31601;48.042;12.240;2022-08-11T05:30:40;6.17;;;3.80;;
12756;SDS011;31601;48.042;12.240;2022-08-11T05:33:29;8.27;;;4.33;;
12756;SDS011;31601;48.042;12.240;2022-08-11T05:36:22;7.83;;;4.03;;
12756;SDS011;31601;48.042;12.240;2022-08-11T05:38:55;4.87;;;4.00;;
12756;SDS011;31601;48.042;12.240;2022-08-11T05:41:42;4.30;;;3.90;;
12756;SDS011;31601;48.042;12.240;2022-08-11T05:44:28;5.87;;;3.93;;
12756;SDS011;31601;48.042;12.240;2022-08-11T05:47:20;7.40;;;3.93;;
12756;SDS011;31601;48.042;12.240;2022-08-11T05:50:07;6.30;;;3.77;;
12756;SDS011;31601;48.042;12.240;2022-08-11T05:52:52;6.50;;;3.60;;
12756;SDS011;31601;48.042;12.240;2022-08-11T05:55:38;5.20;;;3.83;;
12756;SDS011;31601;48.042;12.240;2022-08-11T05:58:23;7.10;;;3.50;;
12756;SDS011;31601;48.042;12.240;2022-08-11T06:00:51;8.17;;;3.27;;
12756;SDS011;31601;48.042;12.240;2022-08-11T06:03:19;4.90;;;3.37;;
12756;SDS011;31601;48.042;12.240;2022-08-11T06:05:50;4.57;;;2.83;;
12756;SDS011;31601;48.042;12.240;2022-08-11T06:08:17;5.77;;;3.47;;
12756;SDS011;31601;48.042;12.240;2022-08-11T06:10:52;6.57;;;3.20;;
12756;SDS011;31601;48.042;12.240;2022-08-11T06:13:25;4.97;;;3.30;;
12756;SDS011;31601;48.042;12.240;2022-08-11T06:15:54;3.37;;;3.03;;
12756;SDS011;31601;48.042;12.240;2022-08-11T06:18:23;6.77;;;3.13;;
12756;SDS011;31601;48.042;12.240;2022-08-11T06:20:51;5.20;;;2.90;;
12756;SDS011;31601;48.042;12.240;2022-08-11T06:23:20;5.20;;;3.47;;
12756;SDS011;31601;48.042;12.240;2022-08-11T06:25:49;10.35;;;3.13;;
12756;SDS011;31601;48.042;12.240;2022-08-11T06:28:17;6.60;;;2.85;;
12756;SDS011;31601;48.042;12.240;2022-08-11T06:30:46;6.43;;;2.95;;
12756;SDS011;31601;48.042;12.240;2022-08-11T06:33:16;5.18;;;3.10;;
12756;SDS011;31601;48.042;12.240;2022-08-11T06:35:49;4.25;;;3.28;;
12756;SDS011;31601;48.042;12.240;2022-08-11T06:38:26;5.65;;;3.10;;
12756;SDS011;31601;48.042;12.240;2022-08-11T06:41:06;4.60;;;3.10;;
12756;SDS011;31601;48.042;12.240;2022-08-11T06:44:00;7.55;;;3.13;;
12756;SDS011;31601;48.042;12.240;2022-08-11T06:46:34;6.97;;;2.97;;
12756;SDS011;31601;48.042;12.240;2022-08-11T06:49:05;3.75;;;2.47;;
12756;SDS011;31601;48.042;12.240;2022-08-11T06:51:58;4.45;;;2.78;;
12756;SDS011;31601;48.042;12.240;2022-08-11T06:54:25;7.65;;;3.03;;
12756;SDS011;31601;48.042;12.240;2022-08-11T06:56:57;5.18;;;3.13;;
12756;SDS011;31601;48.042;12.240;2022-08-11T06:59:42;4.80;;;3.25;;
12756;SDS011;31601;48.042;12.240;2022-08-11T07:02:29;6.65;;;3.00;;
12756;SDS011;31601;48.042;12.240;2022-08-11T07:05:00;7.85;;;3.03;;
12756;SDS011;31601;48.042;12.240;2022-08-11T07:07:41;6.38;;;2.80;;
12756;SDS011;31601;48.042;12.240;2022-08-11T07:10:59;5.22;;;3.05;;
12756;SDS011;31601;48.042;12.240;2022-08-11T07:14:01;5.85;;;3.47;;
12756;SDS011;31601;48.042;12.240;2022-08-11T07:16:47;3.25;;;2.60;;
12756;SDS011;31601;48.042;12.240;2022-08-11T07:19:16;2.80;;;2.45;;
12756;SDS011;31601;48.042;12.240;2022-08-11T07:22:06;6.22;;;2.50;;
12756;SDS011;31601;48.042;12.240;2022-08-11T07:24:54;4.70;;;2.15;;
12756;SDS011;31601;48.042;12.240;2022-08-11T07:27:42;4.88;;;2.83;;
12756;SDS011;31601;48.042;12.240;2022-08-11T07:30:28;3.42;;;2.58;;
12756;SDS011;31601;48.042;12.240;2022-08-11T07:32:56;7.07;;;2.40;;
12756;SDS011;31601;48.042;12.240;2022-08-11T07:35:26;4.70;;;2.53;;
12756;SDS011;31601;48.042;12.240;2022-08-11T07:37:58;7.95;;;2.58;;
12756;SDS011;31601;48.042;12.240;2022-08-11T07:40:29;3.40;;;2.55;;
12756;SDS011;31601;48.042;12.240;2022-08-11T07:42:56;2.97;;;2.17;;
12756;SDS011;31601;48.042;12.240;2022-08-11T07:45:25;3.92;;;2.45;;
12756;SDS011;31601;48.042;12.240;2022-08-11T07:48:10;6.72;;;2.55;;
12756;SDS011;31601;48.042;12.240;2022-08-11T07:50:56;3.65;;;2.60;;
12756;SDS011;31601;48.042;12.240;2022-08-11T07:53:42;7.00;;;2.40;;
12756;SDS011;31601;48.042;12.240;2022-08-11T07:56:10;5.70;;;2.65;;
12756;SDS011;31601;48.042;12.240;2022-08-11T07:58:40;3.33;;;2.28;;
12756;SDS011;31601;48.042;12.240;2022-08-11T08:01:25;4.45;;;2.22;;
12756;SDS011;31601;48.042;12.240;2022-08-11T08:04:11;4.00;;;2.25;;
12756;SDS011;31601;48.042;12.240;2022-08-11T08:07:00;4.35;;;2.70;;
12756;SDS011;31601;48.042;12.240;2022-08-11T08:09:47;5.63;;;2.38;;
12756;SDS011;31601;48.042;12.240;2022-08-11T08:12:32;4.68;;;2.30;;
12756;SDS011;31601;48.042;12.240;2022-08-11T08:15:18;4.47;;;2.40;;
12756;SDS011;31601;48.042;12.240;2022-08-11T08:18:04;2.65;;;2.33;;
12756;SDS011;31601;48.042;12.240;2022-08-11T08:20:34;4.43;;;2.60;;
12756;SDS011;31601;48.042;12.240;2022-08-11T08:23:03;4.45;;;2.50;;
12756;SDS011;31601;48.042;12.240;2022-08-11T08:25:32;5.43;;;2.35;;
12756;SDS011;31601;48.042;12.240;2022-08-11T08:28:02;5.53;;;2.50;;
12756;SDS011;31601;48.042;12.240;2022-08-11T08:30:32;5.47;;;2.75;;
12756;SDS011;31601;48.042;12.240;2022-08-11T08:33:16;3.00;;;2.00;;
12756;SDS011;31601;48.042;12.240;2022-08-11T08:35:45;3.20;;;2.10;;
12756;SDS011;31601;48.042;12.240;2022-08-11T08:38:13;3.38;;;2.40;;
12756;SDS011;31601;48.042;12.240;2022-08-11T08:40:42;5.75;;;2.45;;
12756;SDS011;31601;48.042;12.240;2022-08-11T08:43:12;2.75;;;2.17;;
12756;SDS011;31601;48.042;12.240;2022-08-11T08:45:42;6.15;;;2.67;;
12756;SDS011;31601;48.042;12.240;2022-08-11T08:48:10;3.33;;;2.08;;
12756;SDS011;31601;48.042;12.240;2022-08-11T08:50:42;12.13;;;2.60;;
12756;SDS011;31601;48.042;12.240;2022-08-11T08:53:31;5.72;;;2.42;;
12756;SDS011;31601;48.042;12.240;2022-08-11T08:56:05;4.88;;;2.50;;
12756;SDS011;31601;48.042;12.240;2022-08-11T08:58:33;3.30;;;2.03;;
12756;SDS011;31601;48.042;12.240;2022-08-11T09:01:02;5.47;;;2.30;;
12756;SDS011;31601;48.042;12.240;2022-08-11T09:03:29;3.28;;;2.20;;
12756;SDS011;31601;48.042;12.240;2022-08-11T09:05:58;3.78;;;2.42;;
12756;SDS011;31601;48.042;12.240;2022-08-11T09:08:25;2.65;;;2.38;;
12756;SDS011;31601;48.042;12.240;2022-08-11T09:10:54;3.08;;;2.13;;
12756;SDS011;31601;48.042;12.240;2022-08-11T09:13:36;4.80;;;2.33;;
12756;SDS011;31601;48.042;12.240;2022-08-11T09:16:06;3.75;;;2.25;;
12756;SDS011;31601;48.042;12.240;2022-08-11T09:18:35;4.07;;;2.22;;
12756;SDS011;31601;48.042;12.240;2022-08-11T09:21:02;3.78;;;2.30;;
12756;SDS011;31601;48.042;12.240;2022-08-11T09:23:30;4.28;;;2.13;;
12756;SDS011;31601;48.042;12.240;2022-08-11T09:26:14;3.60;;;2.50;;
12756;SDS011;31601;48.042;12.240;2022-08-11T09:29:00;4.68;;;2.38;;
12756;SDS011;31601;48.042;12.240;2022-08-11T09:31:29;3.25;;;2.40;;
12756;SDS011;31601;48.042;12.240;2022-08-11T09:33:58;3.40;;;2.35;;
12756;SDS011;31601;48.042;12.240;2022-08-11T09:36:26;3.65;;;2.53;;
12756;SDS011;31601;48.042;12.240;2022-08-11T09:39:11;4.47;;;2.40;;
12756;SDS011;31601;48.042;12.240;2022-08-11T09:41:56;5.03;;;2.33;;
12756;SDS011;31601;48.042;12.240;2022-08-11T09:44:26;4.95;;;2.30;;
12756;SDS011;31601;48.042;12.240;2022-08-11T09:47:12;3.55;;;2.33;;
12756;SDS011;31601;48.042;12.240;2022-08-11T09:49:42;3.70;;;2.30;;
12756;SDS011;31601;48.042;12.240;2022-08-11T09:52:10;3.80;;;2.30;;
12756;SDS011;31601;48.042;12.240;2022-08-11T09:54:39;2.88;;;2.20;;
12756;SDS011;31601;48.042;12.240;2022-08-11T09:57:06;3.83;;;2.30;;
12756;SDS011;31601;48.042;12.240;2022-08-11T09:59:54;4.45;;;1.90;;
12756;SDS011;31601;48.042;12.240;2022-08-11T10:02:22;4.13;;;2.35;;
12756;SDS011;31601;48.042;12.240;2022-08-11T10:04:51;5.55;;;2.22;;
12756;SDS011;31601;48.042;12.240;2022-08-11T10:07:43;5.63;;;2.17;;
12756;SDS011;31601;48.042;12.240;2022-08-11T10:10:14;3.22;;;2.45;;
12756;SDS011;31601;48.042;12.240;2022-08-11T10:12:46;4.25;;;2.10;;
12756;SDS011;31601;48.042;12.240;2022-08-11T10:15:16;3.95;;;2.08;;
12756;SDS011;31601;48.042;12.240;2022-08-11T10:17:59;4.50;;;2.10;;
12756;SDS011;31601;48.042;12.240;2022-08-11T10:20:47;5.68;;;1.80;;
12756;SDS011;31601;48.042;12.240;2022-08-11T10:23:15;3.72;;;2.20;;
12756;SDS011;31601;48.042;12.240;2022-08-11T10:26:00;3.65;;;1.85;;
12756;SDS011;31601;48.042;12.240;2022-08-11T10:28:45;5.90;;;2.30;;
12756;SDS011;31601;48.042;12.240;2022-08-11T10:31:13;3.72;;;2.30;;
12756;SDS011;31601;48.042;12.240;2022-08-11T10:33:58;3.92;;;2.20;;
12756;SDS011;31601;48.042;12.240;2022-08-11T10:36:28;3.95;;;1.90;;
12756;SDS011;31601;48.042;12.240;2022-08-11T10:38:56;4.25;;;1.77;;
12756;SDS011;31601;48.042;12.240;2022-08-11T10:41:24;4.97;;;2.05;;
12756;SDS011;31601;48.042;12.240;2022-08-11T10:44:10;3.97;;;1.80;;
12756;SDS011;31601;48.042;12.240;2022-08-11T10:46:39;6.13;;;2.25;;
12756;SDS011;31601;48.042;12.240;2022-08-11T10:49:23;4.32;;;1.80;;
12756;SDS011;31601;48.042;12.240;2022-08-11T10:51:52;3.85;;;2.10;;
12756;SDS011;31601;48.042;12.240;2022-08-11T10:54:39;3.00;;;2.03;;
12756;SDS011;31601;48.042;12.240;2022-08-11T10:57:25;5.10;;;2.33;;
12756;SDS011;31601;48.042;12.240;2022-08-11T11:00:11;3.53;;;2.20;;
12756;SDS011;31601;48.042;12.240;2022-08-11T11:02:40;3.75;;;1.70;;
12756;SDS011;31601;48.042;12.240;2022-08-11T11:05:09;4.10;;;1.73;;
12756;SDS011;31601;48.042;12.240;2022-08-11T11:07:43;3.03;;;1.83;;
12756;SDS011;31601;48.042;12.240;2022-08-11T11:10:15;4.20;;;2.00;;
12756;SDS011;31601;48.042;12.240;2022-08-11T11:12:43;2.78;;;1.70;;
12756;SDS011;31601;48.042;12.240;2022-08-11T11:15:29;2.70;;;1.70;;
12756;SDS011;31601;48.042;12.240;2022-08-11T11:18:18;3.47;;;1.98;;
12756;SDS011;31601;48.042;12.240;2022-08-11T11:20:47;5.28;;;2.10;;
12756;SDS011;31601;48.042;12.240;2022-08-11T11:23:19;2.35;;;1.83;;
12756;SDS011;31601;48.042;12.240;2022-08-11T11:25:54;3.63;;;1.70;;
12756;SDS011;31601;48.042;12.240;2022-08-11T11:28:46;4.03;;;1.80;;
12756;SDS011;31601;48.042;12.240;2022-08-11T11:31:27;3.03;;;1.80;;
12756;SDS011;31601;48.042;12.240;2022-08-11T11:34:10;6.97;;;1.83;;
12756;SDS011;31601;48.042;12.240;2022-08-11T11:36:44;4.28;;;2.03;;
12756;SDS011;31601;48.042;12.240;2022-08-11T11:39:16;3.75;;;1.70;;
12756;SDS011;31601;48.042;12.240;2022-08-11T11:41:44;4.43;;;1.85;;
12756;SDS011;31601;48.042;12.240;2022-08-11T11:44:11;2.90;;;1.80;;
12756;SDS011;31601;48.042;12.240;2022-08-11T11:46:38;8.35;;;1.98;;
12756;SDS011;31601;48.042;12.240;2022-08-11T11:49:10;4.28;;;1.88;;
12756;SDS011;31601;48.042;12.240;2022-08-11T11:51:39;2.35;;;1.67;;
12756;SDS011;31601;48.042;12.240;2022-08-11T11:54:06;5.28;;;1.63;;
12756;SDS011;31601;48.042;12.240;2022-08-11T11:56:34;1.90;;;1.58;;
12756;SDS011;31601;48.042;12.240;2022-08-11T11:59:01;2.88;;;1.80;;
12756;SDS011;31601;48.042;12.240;2022-08-11T12:01:46;2.90;;;1.80;;
12756;SDS011;31601;48.042;12.240;2022-08-11T12:04:15;3.60;;;1.70;;
12756;SDS011;31601;48.042;12.240;2022-08-11T12:06:43;1.90;;;1.55;;
12756;SDS011;31601;48.042;12.240;2022-08-11T12:09:11;4.97;;;1.58;;
12756;SDS011;31601;48.042;12.240;2022-08-11T12:11:42;5.13;;;1.80;;
12756;SDS011;31601;48.042;12.240;2022-08-11T12:14:27;5.30;;;1.65;;
12756;SDS011;31601;48.042;12.240;2022-08-11T12:16:55;2.88;;;1.38;;
12756;SDS011;31601;48.042;12.240;2022-08-11T12:19:24;2.25;;;1.50;;
12756;SDS011;31601;48.042;12.240;2022-08-11T12:21:53;4.85;;;2.20;;
12756;SDS011;31601;48.042;12.240;2022-08-11T12:24:38;2.85;;;1.70;;
12756;SDS011;31601;48.042;12.240;2022-08-11T12:27:23;3.88;;;1.60;;
12756;SDS011;31601;48.042;12.240;2022-08-11T12:29:53;2.88;;;1.60;;
12756;SDS011;31601;48.042;12.240;2022-08-11T12:32:22;3.63;;;1.60;;
12756;SDS011;31601;48.042;12.240;2022-08-11T12:34:52;2.30;;;1.63;;
12756;SDS011;31601;48.042;12.240;2022-08-11T12:37:22;2.30;;;1.30;;
12756;SDS011;31601;48.042;12.240;2022-08-11T12:39:55;2.55;;;1.50;;
12756;SDS011;31601;48.042;12.240;2022-08-11T12:42:43;1.50;;;1.20;;
12756;SDS011;31601;48.042;12.240;2022-08-11T12:45:28;2.70;;;1.30;;
12756;SDS011;31601;48.042;12.240;2022-08-11T12:48:05;2.95;;;1.63;;
12756;SDS011;31601;48.042;12.240;2022-08-11T12:50:54;4.05;;;1.60;;
12756;SDS011;31601;48.042;12.240;2022-08-11T12:53:45;2.72;;;1.60;;
12756;SDS011;31601;48.042;12.240;2022-08-11T12:56:19;3.03;;;1.52;;
12756;SDS011;31601;48.042;12.240;2022-08-11T12:59:04;5.40;;;1.52;;
12756;SDS011;31601;48.042;12.240;2022-08-11T13:01:50;2.25;;;1.35;;
12756;SDS011;31601;48.042;12.240;2022-08-11T13:04:35;3.25;;;1.30;;
12756;SDS011;31601;48.042;12.240;2022-08-11T13:07:19;1.98;;;1.25;;
12756;SDS011;31601;48.042;12.240;2022-08-11T13:09:46;1.73;;;1.42;;
12756;SDS011;31601;48.042;12.240;2022-08-11T13:12:13;3.78;;;1.60;;
12756;SDS011;31601;48.042;12.240;2022-08-11T13:14:59;4.97;;;1.55;;
12756;SDS011;31601;48.042;12.240;2022-08-11T13:17:27;2.72;;;1.40;;
12756;SDS011;31601;48.042;12.240;2022-08-11T13:19:55;2.95;;;1.40;;
12756;SDS011;31601;48.042;12.240;2022-08-11T13:22:25;2.05;;;1.35;;
12756;SDS011;31601;48.042;12.240;2022-08-11T13:24:52;2.20;;;1.45;;
12756;SDS011;31601;48.042;12.240;2022-08-11T13:27:20;2.38;;;1.35;;
12756;SDS011;31601;48.042;12.240;2022-08-11T13:29:48;3.88;;;1.33;;
12756;SDS011;31601;48.042;12.240;2022-08-11T13:32:36;3.30;;;1.40;;
12756;SDS011;31601;48.042;12.240;2022-08-11T13:35:05;3.22;;;1.40;;
12756;SDS011;31601;48.042;12.240;2022-08-11T13:37:33;1.67;;;1.30;;
12756;SDS011;31601;48.042;12.240;2022-08-11T13:40:00;2.03;;;1.65;;
12756;SDS011;31601;48.042;12.240;2022-08-11T13:42:27;1.67;;;1.30;;
12756;SDS011;31601;48.042;12.240;2022-08-11T13:44:54;1.88;;;1.17;;
12756;SDS011;31601;48.042;12.240;2022-08-11T13:47:22;3.40;;;1.42;;
12756;SDS011;31601;48.042;12.240;2022-08-11T13:49:50;2.53;;;1.45;;
12756;SDS011;31601;48.042;12.240;2022-08-11T13:52:17;1.88;;;1.50;;
12756;SDS011;31601;48.042;12.240;2022-08-11T13:54:46;2.85;;;1.10;;
12756;SDS011;31601;48.042;12.240;2022-08-11T13:57:15;2.00;;;1.40;;
12756;SDS011;31601;48.042;12.240;2022-08-11T13:59:43;1.73;;;1.30;;
12756;SDS011;31601;48.042;12.240;2022-08-11T14:02:12;1.65;;;1.10;;
12756;SDS011;31601;48.042;12.240;2022-08-11T14:04:40;2.33;;;1.30;;
12756;SDS011;31601;48.042;12.240;2022-08-11T14:07:09;4.72;;;1.45;;
12756;SDS011;31601;48.042;12.240;2022-08-11T14:09:39;2.50;;;1.30;;
12756;SDS011;31601;48.042;12.240;2022-08-11T14:12:12;3.10;;;1.30;;
12756;SDS011;31601;48.042;12.240;2022-08-11T14:15:00;2.17;;;1.33;;
12756;SDS011;31601;48.042;12.240;2022-08-11T14:17:35;2.35;;;1.45;;
12756;SDS011;31601;48.042;12.240;2022-08-11T14:20:07;2.17;;;1.30;;
12756;SDS011;31601;48.042;12.240;2022-08-11T14:22:35;2.05;;;1.33;;
12756;SDS011;31601;48.042;12.240;2022-08-11T14:25:06;4.05;;;1.80;;
12756;SDS011;31601;48.042;12.240;2022-08-11T14:27:34;2.40;;;1.50;;
12756;SDS011;31601;48.042;12.240;2022-08-11T14:30:01;2.72;;;1.30;;
12756;SDS011;31601;48.042;12.240;2022-08-11T14:32:50;2.47;;;1.50;;
12756;SDS011;31601;48.042;12.240;2022-08-11T14:35:17;2.80;;;1.30;;
12756;SDS011;31601;48.042;12.240;2022-08-11T14:37:44;3.33;;;1.38;;
12756;SDS011;31601;48.042;12.240;2022-08-11T14:40:10;4.07;;;1.48;;
12756;SDS011;31601;48.042;12.240;2022-08-11T14:42:59;5.05;;;1.42;;
12756;SDS011;31601;48.042;12.240;2022-08-11T14:45:45;2.63;;;1.35;;
12756;SDS011;31601;48.042;12.240;2022-08-11T15:08:41;5.13;;;1.67;;
12756;SDS011;31601;48.042;12.240;2022-08-11T15:11:20;4.38;;;1.45;;
12756;SDS011;31601;48.042;12.240;2022-08-11T15:14:06;6.00;;;1.38;;
12756;SDS011;31601;48.042;12.240;2022-08-11T15:16:34;2.17;;;1.40;;
12756;SDS011;31601;48.042;12.240;2022-08-11T15:19:20;4.25;;;1.42;;
12756;SDS011;31601;48.042;12.240;2022-08-11T15:21:47;2.97;;;1.77;;
12756;SDS011;31601;48.042;12.240;2022-08-11T15:24:33;1.92;;;1.50;;
12756;SDS011;31601;48.042;12.240;2022-08-11T15:27:02;4.75;;;1.63;;
12756;SDS011;31601;48.042;12.240;2022-08-11T15:29:50;2.67;;;1.20;;
12756;SDS011;31601;48.042;12.240;2022-08-11T15:32:36;3.50;;;1.58;;
12756;SDS011;31601;48.042;12.240;2022-08-11T15:35:23;4.28;;;1.92;;
12756;SDS011;31601;48.042;12.240;2022-08-11T15:38:08;2.97;;;1.52;;
12756;SDS011;31601;48.042;12.240;2022-08-11T15:40:40;3.40;;;1.75;;
12756;SDS011;31601;48.042;12.240;2022-08-11T15:43:27;5.07;;;1.65;;
12756;SDS011;31601;48.042;12.240;2022-08-11T15:46:15;2.80;;;1.42;;
12756;SDS011;31601;48.042;12.240;2022-08-11T15:48:46;5.63;;;1.63;;
12756;SDS011;31601;48.042;12.240;2022-08-11T15:51:17;3.03;;;1.35;;
12756;SDS011;31601;48.042;12.240;2022-08-11T15:53:47;4.22;;;1.50;;
12756;SDS011;31601;48.042;12.240;2022-08-11T15:56:18;3.72;;;1.50;;
12756;SDS011;31601;48.042;12.240;2022-08-11T15:58:49;4.97;;;1.48;;
12756;SDS011;31601;48.042;12.240;2022-08-11T16:01:35;3.28;;;1.50;;
12756;SDS011;31601;48.042;12.240;2022-08-11T16:04:22;2.97;;;1.48;;
12756;SDS011;31601;48.042;12.240;2022-08-11T16:06:53;2.38;;;1.20;;
12756;SDS011;31601;48.042;12.240;2022-08-11T16:09:25;1.95;;;1.40;;
12756;SDS011;31601;48.042;12.240;2022-08-11T16:11:58;6.20;;;1.33;;
12756;SDS011;31601;48.042;12.240;2022-08-11T16:14:27;4.35;;;1.58;;
12756;SDS011;31601;48.042;12.240;2022-08-11T16:17:13;2.38;;;1.70;;
12756;SDS011;31601;48.042;12.240;2022-08-11T16:19:42;2.50;;;1.75;;
12756;SDS011;31601;48.042;12.240;2022-08-11T16:22:10;4.03;;;1.30;;
12756;SDS011;31601;48.042;12.240;2022-08-11T16:24:41;2.15;;;1.50;;
12756;SDS011;31601;48.042;12.240;2022-08-11T16:27:12;3.28;;;1.40;;
12756;SDS011;31601;48.042;12.240;2022-08-11T16:29:43;2.53;;;1.42;;
12756;SDS011;31601;48.042;12.240;2022-08-11T16:32:12;1.88;;;1.30;;
12756;SDS011;31601;48.042;12.240;2022-08-11T16:34:44;1.42;;;1.30;;
12756;SDS011;31601;48.042;12.240;2022-08-11T16:37:32;5.25;;;1.88;;
12756;SDS011;31601;48.042;12.240;2022-08-11T16:40:18;2.85;;;1.30;;
12756;SDS011;31601;48.042;12.240;2022-08-11T16:42:48;2.00;;;1.20;;
12756;SDS011;31601;48.042;12.240;2022-08-11T16:45:33;1.80;;;1.27;;